Terminal Aerodrome Forecast
Issued by NWS

Home | Current Version | Previous Version | Text Only | Print | Product List | Glossary On
Versions: 1 2 3 4 5 6 7 8 9 10 11 12 13 14 15 16 17 18
657
FTAK31 PAJN 062320
TAFAJN
TAF
PAJN 062320Z 0700/0724 09008KT P6SM -SHRA FEW010 BKN035 OVC050
     FM070200 09007KT P6SM VCSH SCT050 BKN070 OVC100
     FM070500 09007KT P6SM SCT050 BKN070 OVC100
     FM071500 11005KT P6SM -SNRA SCT035 BKN050 OVC080
     FM071900 12008KT P6SM -RA BKN035 OVC050=

USA.gov is the U.S. government's official web portal to all federal, state and local government web resources and services.